Time;durP1;ratioP1;P1;durP2;ratioP2;P2;SDS_P1;SDS_P2;PMS_P1;PMS_P2;Temp;Humidity;BMP_temperature;BMP_pressure;BME280_temperature;BME280_humidity;BME280_pressure;Samples;Min_cycle;Max_cycle;Signal;HPM_P1;HPM_P2
2022/05/19 00:01:25;;;;;;;0.30;0.20;;;11.60;61.20;;;;;;5093495;28;20505;-93
2022/05/19 00:03:54;;;;;;;0.30;0.20;;;11.60;61.20;;;;;;5100147;28;20441;-92
2022/05/19 00:06:21;;;;;;;0.30;0.20;;;11.50;61.80;;;;;;5075734;28;20460;-93
2022/05/19 00:09:05;;;;;;;0.30;0.20;;;11.50;62.30;;;;;;5074008;28;20448;-93
2022/05/19 00:11:34;;;;;;;0.30;0.20;;;11.60;61.50;;;;;;5071517;28;20479;-90
2022/05/19 00:14:02;;;;;;;0.30;0.20;;;11.50;61.40;;;;;;5077119;28;20490;-91
2022/05/19 00:16:32;;;;;;;0.30;0.20;;;11.40;61.90;;;;;;5070816;28;20448;-92
2022/05/19 00:19:00;;;;;;;0.30;0.10;;;11.40;63.00;;;;;;5068963;28;20464;-91
2022/05/19 00:21:27;;;;;;;0.30;0.20;;;11.50;61.80;;;;;;5067134;28;20524;-92
2022/05/19 00:23:54;;;;;;;0.30;0.20;;;11.40;62.50;;;;;;5075621;28;21021;-92
2022/05/19 00:26:21;;;;;;;0.30;0.20;;;11.30;62.90;;;;;;5075036;28;20793;-92
2022/05/19 00:28:57;;;;;;;0.30;0.20;;;11.30;63.20;;;;;;5069568;28;20545;-93
2022/05/19 00:31:26;;;;;;;0.30;0.20;;;11.30;62.70;;;;;;5070373;28;20516;-92
2022/05/19 00:33:57;;;;;;;0.30;0.20;;;11.20;63.90;;;;;;5071588;28;20570;-92
2022/05/19 00:36:24;;;;;;;0.40;0.20;;;11.10;64.80;;;;;;5074241;28;20452;-93
2022/05/19 00:38:51;;;;;;;0.30;0.20;;;11.00;64.50;;;;;;5077806;28;20854;-91
2022/05/19 00:41:18;;;;;;;0.30;0.20;;;11.10;65.00;;;;;;5073597;28;20439;-91
2022/05/19 00:43:59;;;;;;;0.30;0.20;;;11.20;63.60;;;;;;5068498;28;20447;-93
2022/05/19 00:46:29;;;;;;;0.30;0.20;;;11.20;64.20;;;;;;5074697;28;20453;-93
2022/05/19 00:49:03;;;;;;;0.30;0.20;;;11.20;63.00;;;;;;5069617;28;21131;-91
2022/05/19 00:51:41;;;;;;;0.30;0.20;;;11.30;63.00;;;;;;5071633;28;20462;-93
2022/05/19 00:54:12;;;;;;;0.30;0.20;;;11.30;63.10;;;;;;5072813;28;20483;-92
2022/05/19 00:56:48;;;;;;;0.30;0.20;;;11.30;63.50;;;;;;5065935;28;20460;-93
2022/05/19 00:59:25;;;;;;;0.30;0.20;;;11.10;63.60;;;;;;5067798;28;20518;-91
2022/05/19 01:01:58;;;;;;;0.30;0.20;;;11.30;62.80;;;;;;5079453;28;20451;-91
2022/05/19 01:04:36;;;;;;;0.30;0.20;;;11.20;63.50;;;;;;5076794;28;20466;-93
2022/05/19 01:07:07;;;;;;;0.30;0.20;;;11.10;64.10;;;;;;5071703;28;20455;-93
2022/05/19 01:09:37;;;;;;;0.30;0.20;;;11.20;63.60;;;;;;5076750;28;20549;-92
2022/05/19 01:12:06;;;;;;;0.60;0.60;;;11.10;63.40;;;;;;5069950;28;20455;-93
2022/05/19 01:14:33;;;;;;;0.30;0.20;;;11.10;64.50;;;;;;5069201;28;20513;-90
2022/05/19 01:17:01;;;;;;;0.30;0.20;;;11.10;64.20;;;;;;5063068;28;20464;-90
2022/05/19 01:19:35;;;;;;;0.30;0.20;;;11.10;64.20;;;;;;5063614;28;20509;-91
2022/05/19 01:22:09;;;;;;;0.30;0.20;;;11.10;64.10;;;;;;5067005;28;20486;-90
2022/05/19 01:24:44;;;;;;;0.30;0.20;;;11.10;63.60;;;;;;5064825;28;20487;-90
2022/05/19 01:27:12;;;;;;;0.30;0.20;;;11.00;64.40;;;;;;5079458;28;20443;-90
2022/05/19 01:29:39;;;;;;;0.30;0.20;;;11.00;65.10;;;;;;5067001;28;20996;-90
2022/05/19 01:32:22;;;;;;;0.30;0.20;;;11.10;65.10;;;;;;5080368;28;20454;-90
2022/05/19 01:34:48;;;;;;;0.30;0.20;;;11.00;64.60;;;;;;5073786;28;20908;-90
2022/05/19 01:37:18;;;;;;;0.30;0.20;;;11.00;64.20;;;;;;5070320;28;20444;-91
2022/05/19 01:39:50;;;;;;;0.40;0.30;;;11.10;64.50;;;;;;5068934;28;20455;-91
2022/05/19 01:42:33;;;;;;;0.30;0.20;;;11.00;64.60;;;;;;5074822;28;20488;-91
2022/05/19 01:45:11;;;;;;;0.30;0.20;;;11.10;64.60;;;;;;5073210;28;20456;-91
2022/05/19 01:47:43;;;;;;;0.30;0.20;;;11.00;64.40;;;;;;5073915;28;20869;-91
2022/05/19 01:50:18;;;;;;;0.30;0.20;;;11.00;65.50;;;;;;5067351;28;20451;-92
2022/05/19 01:52:52;;;;;;;0.30;0.13;;;10.90;65.80;;;;;;5068198;28;20482;-91
2022/05/19 01:55:26;;;;;;;0.30;0.20;;;10.80;66.40;;;;;;5070272;28;20485;-92
2022/05/19 01:58:00;;;;;;;0.30;0.10;;;10.70;66.70;;;;;;5068680;28;20492;-91
2022/05/19 02:00:29;;;;;;;0.30;0.20;;;10.70;67.10;;;;;;5067901;28;21183;-92
2022/05/19 02:03:03;;;;;;;1.50;1.40;;;10.60;67.60;;;;;;5071188;28;20439;-91
2022/05/19 02:05:37;;;;;;;0.30;0.20;;;10.50;68.60;;;;;;5084535;28;20560;-91
2022/05/19 02:08:09;;;;;;;0.30;0.20;;;10.60;69.10;;;;;;5095857;28;20471;-91
2022/05/19 02:10:40;;;;;;;0.30;0.20;;;10.50;69.50;;;;;;5085474;28;20455;-91
2022/05/19 02:13:09;;;;;;;0.30;0.20;;;10.50;69.50;;;;;;5072742;28;20651;-91
2022/05/19 02:15:41;;;;;;;0.30;0.20;;;10.50;69.20;;;;;;5068338;28;20995;-91
2022/05/19 02:18:09;;;;;;;0.30;0.20;;;10.60;69.90;;;;;;5070105;28;21461;-91
2022/05/19 02:20:38;;;;;;;0.30;0.20;;;10.50;69.60;;;;;;5068426;28;20965;-91
2022/05/19 02:23:06;;;;;;;0.30;0.20;;;10.50;68.80;;;;;;5067183;28;20521;-91
2022/05/19 02:25:37;;;;;;;0.30;0.10;;;10.50;68.40;;;;;;5067712;28;20470;-91
2022/05/19 02:28:07;;;;;;;0.30;0.20;;;10.50;68.50;;;;;;5068315;28;20509;-91
2022/05/19 02:30:39;;;;;;;0.30;0.20;;;10.60;68.40;;;;;;5071572;28;20817;-91
2022/05/19 02:33:07;;;;;;;0.30;0.20;;;10.50;68.80;;;;;;5069832;28;20475;-91
2022/05/19 02:35:35;;;;;;;0.30;0.20;;;10.50;67.70;;;;;;5069982;28;20519;-91
2022/05/19 02:38:03;;;;;;;0.30;0.17;;;10.40;69.20;;;;;;5068114;28;20898;-91
2022/05/19 02:40:32;;;;;;;0.30;0.20;;;10.40;70.30;;;;;;5069632;28;20468;-92
2022/05/19 02:43:00;;;;;;;0.30;0.20;;;10.40;69.60;;;;;;5067419;28;20509;-91
2022/05/19 02:45:27;;;;;;;0.30;0.20;;;10.30;70.10;;;;;;5071896;28;20521;-90
2022/05/19 02:47:56;;;;;;;0.30;0.20;;;10.20;70.40;;;;;;5070691;28;20475;-91
2022/05/19 02:50:24;;;;;;;0.30;0.20;;;10.10;71.20;;;;;;5071450;28;20518;-91
2022/05/19 02:52:51;;;;;;;0.30;0.10;;;10.10;71.30;;;;;;5071579;28;21165;-93
2022/05/19 02:55:19;;;;;;;0.30;0.17;;;10.20;70.60;;;;;;5072344;28;20519;-91
2022/05/19 02:57:48;;;;;;;0.30;0.20;;;10.20;71.30;;;;;;5070122;28;20463;-91
2022/05/19 03:00:19;;;;;;;0.30;0.20;;;10.10;71.70;;;;;;5073295;28;20464;-92
2022/05/19 03:02:49;;;;;;;0.30;0.20;;;10.10;71.60;;;;;;5072265;28;20462;-92
2022/05/19 03:05:23;;;;;;;0.30;0.20;;;10.10;70.80;;;;;;5076157;28;20529;-93
2022/05/19 03:07:51;;;;;;;0.30;0.20;;;10.10;71.70;;;;;;5074598;28;20466;-92
2022/05/19 03:10:21;;;;;;;0.30;0.20;;;10.20;71.50;;;;;;5073428;28;20512;-95
2022/05/19 03:12:50;;;;;;;0.30;0.20;;;10.20;71.60;;;;;;5075742;28;20485;-92
2022/05/19 03:15:17;;;;;;;0.30;0.20;;;10.30;70.90;;;;;;5075747;28;20463;-92
2022/05/19 03:17:47;;;;;;;0.30;0.20;;;10.30;72.00;;;;;;5084510;28;20448;-93
2022/05/19 03:20:18;;;;;;;0.30;0.20;;;10.30;71.30;;;;;;5083308;28;20474;-92
2022/05/19 03:22:45;;;;;;;0.30;0.20;;;10.30;71.30;;;;;;5073366;28;20476;-90
2022/05/19 03:25:12;;;;;;;0.30;0.20;;;10.20;71.50;;;;;;5070747;28;20896;-90
2022/05/19 03:27:40;;;;;;;0.30;0.20;;;10.20;71.60;;;;;;5067195;28;20447;-91
2022/05/19 03:30:10;;;;;;;0.30;0.20;;;10.20;72.40;;;;;;5070132;28;20459;-91
2022/05/19 03:32:38;;;;;;;0.30;0.20;;;10.20;72.10;;;;;;5070756;28;20456;-91
2022/05/19 03:35:05;;;;;;;0.30;0.20;;;10.20;72.60;;;;;;5070106;28;20494;-90
2022/05/19 03:37:34;;;;;;;0.30;0.20;;;10.30;72.80;;;;;;5066735;28;20484;-90
2022/05/19 03:40:01;;;;;;;0.30;0.20;;;10.30;72.00;;;;;;5071460;28;20458;-91
2022/05/19 03:42:28;;;;;;;0.30;0.20;;;10.30;72.50;;;;;;5068537;28;20527;-90
2022/05/19 03:44:55;;;;;;;0.30;0.20;;;10.40;71.50;;;;;;5068534;28;20436;-91
2022/05/19 03:47:22;;;;;;;0.30;0.20;;;10.40;71.20;;;;;;5072461;28;20915;-90
2022/05/19 03:49:49;;;;;;;0.30;0.20;;;10.40;71.80;;;;;;5071153;28;21069;-90
2022/05/19 03:52:16;;;;;;;0.30;0.20;;;10.40;71.90;;;;;;5070169;28;20463;-91
2022/05/19 03:54:45;;;;;;;0.30;0.13;;;10.40;71.60;;;;;;5071981;28;20541;-91
2022/05/19 03:57:13;;;;;;;0.30;0.20;;;10.50;72.40;;;;;;5070904;28;20823;-91
2022/05/19 03:59:40;;;;;;;0.30;0.20;;;10.50;71.90;;;;;;5070050;28;20447;-91
2022/05/19 04:02:07;;;;;;;0.30;0.20;;;10.50;71.80;;;;;;5069217;28;20463;-91
2022/05/19 04:04:34;;;;;;;0.30;0.20;;;10.60;72.10;;;;;;5068871;28;20954;-90
2022/05/19 04:07:01;;;;;;;0.30;0.20;;;10.60;72.50;;;;;;5067361;28;20472;-91
2022/05/19 04:09:28;;;;;;;0.30;0.20;;;10.50;72.90;;;;;;5081529;28;20443;-91
2022/05/19 04:11:57;;;;;;;0.50;0.30;;;10.50;73.20;;;;;;5090182;28;20436;-91
2022/05/19 04:14:24;;;;;;;0.30;0.20;;;10.50;73.70;;;;;;5106851;28;20578;-91
2022/05/19 04:16:52;;;;;;;0.40;0.20;;;10.50;74.60;;;;;;5076119;28;20979;-91
2022/05/19 04:19:20;;;;;;;0.30;0.20;;;10.50;74.00;;;;;;5073913;28;20471;-91
2022/05/19 04:21:47;;;;;;;0.30;0.20;;;10.50;74.80;;;;;;5071826;28;20468;-91
2022/05/19 04:24:14;;;;;;;0.30;0.20;;;10.60;74.70;;;;;;5078186;28;20503;-89
2022/05/19 04:26:41;;;;;;;0.30;0.20;;;10.60;74.30;;;;;;5075074;28;21245;-90
2022/05/19 04:29:09;;;;;;;0.30;0.13;;;10.70;74.10;;;;;;5068937;28;20533;-90
2022/05/19 04:31:37;;;;;;;0.30;0.20;;;10.80;74.40;;;;;;5084755;28;20470;-90
2022/05/19 04:34:06;;;;;;;0.30;0.20;;;10.80;74.60;;;;;;5070396;28;20540;-90
2022/05/19 04:36:33;;;;;;;0.30;0.20;;;10.90;75.50;;;;;;5066264;28;20467;-90
2022/05/19 04:39:00;;;;;;;0.30;0.20;;;11.00;76.60;;;;;;5068162;28;20484;-90
2022/05/19 04:41:27;;;;;;;0.40;0.30;;;11.10;76.20;;;;;;5067829;28;20468;-90
2022/05/19 04:43:54;;;;;;;0.30;0.20;;;11.10;77.20;;;;;;5066101;28;20860;-90
2022/05/19 04:46:23;;;;;;;0.30;0.20;;;11.20;76.90;;;;;;5068857;28;20532;-90
2022/05/19 04:48:50;;;;;;;0.30;0.20;;;11.30;75.00;;;;;;5080798;28;20459;-90
2022/05/19 04:51:17;;;;;;;0.30;0.20;;;11.40;73.80;;;;;;5070088;28;20962;-90
2022/05/19 04:53:44;;;;;;;0.70;0.43;;;11.50;73.40;;;;;;5082397;28;20843;-91
2022/05/19 04:56:11;;;;;;;0.30;0.20;;;11.60;73.40;;;;;;5084795;28;20450;-90
2022/05/19 04:58:38;;;;;;;0.30;0.20;;;11.70;74.50;;;;;;5081116;28;20515;-91
2022/05/19 05:01:06;;;;;;;0.30;0.20;;;11.80;73.50;;;;;;5075392;28;20521;-93
2022/05/19 05:03:34;;;;;;;0.30;0.17;;;12.00;74.50;;;;;;5073808;28;20455;-92
2022/05/19 05:06:01;;;;;;;0.30;0.20;;;11.90;73.50;;;;;;5069325;28;20948;-90
2022/05/19 05:08:28;;;;;;;0.30;0.20;;;11.90;74.40;;;;;;5073861;28;20463;-89
2022/05/19 05:10:55;;;;;;;0.30;0.20;;;12.10;74.40;;;;;;5082513;28;20804;-89
2022/05/19 05:13:22;;;;;;;0.30;0.20;;;12.20;75.20;;;;;;5086259;28;20461;-92
2022/05/19 05:15:49;;;;;;;0.30;0.20;;;12.40;74.80;;;;;;5071737;28;20471;-93
2022/05/19 05:18:16;;;;;;;0.30;0.20;;;12.50;74.50;;;;;;5082553;28;20496;-92
2022/05/19 05:20:45;;;;;;;0.30;0.20;;;12.60;74.40;;;;;;5073604;28;20858;-92
2022/05/19 05:23:12;;;;;;;0.30;0.20;;;12.80;73.30;;;;;;5070489;28;20524;-92
2022/05/19 05:25:40;;;;;;;0.30;0.20;;;12.80;71.50;;;;;;5070816;28;21026;-92
2022/05/19 05:28:08;;;;;;;0.30;0.20;;;12.80;71.50;;;;;;5071620;28;20466;-93
2022/05/19 05:30:35;;;;;;;1.23;1.23;;;13.00;71.60;;;;;;5071021;28;21005;-92
2022/05/19 05:33:08;;;;;;;0.30;0.20;;;13.00;71.40;;;;;;5062514;28;20812;-93
2022/05/19 05:35:35;;;;;;;0.30;0.20;;;13.20;71.90;;;;;;5066575;28;21406;-93
2022/05/19 05:38:04;;;;;;;0.30;0.20;;;13.10;72.50;;;;;;5062455;28;21192;-93
2022/05/19 05:40:31;;;;;;;0.30;0.20;;;13.20;72.60;;;;;;5067602;28;20525;-93
2022/05/19 05:43:05;;;;;;;0.30;0.20;;;13.40;72.80;;;;;;5062789;28;20480;-92
2022/05/19 05:45:32;;;;;;;0.30;0.20;;;13.60;72.00;;;;;;5064551;28;20522;-93
2022/05/19 05:47:59;;;;;;;0.30;0.20;;;13.70;70.80;;;;;;5069078;28;20846;-93
2022/05/19 05:50:26;;;;;;;0.30;0.20;;;13.60;71.90;;;;;;5066383;28;20547;-92
2022/05/19 05:52:53;;;;;;;0.30;0.20;;;13.70;71.70;;;;;;5063427;28;20466;-92
2022/05/19 05:55:22;;;;;;;0.30;0.20;;;13.80;72.20;;;;;;5077537;28;20550;-92
2022/05/19 05:57:50;;;;;;;0.33;0.20;;;13.80;70.90;;;;;;5071751;28;20943;-93
2022/05/19 06:00:20;;;;;;;0.33;0.20;;;13.90;71.90;;;;;;5066564;28;20508;-94
2022/05/19 06:02:48;;;;;;;0.30;0.20;;;14.10;70.90;;;;;;5069931;28;20462;-93
2022/05/19 06:05:16;;;;;;;0.40;0.20;;;14.40;70.50;;;;;;5063551;28;20473;-93
2022/05/19 06:07:43;;;;;;;0.30;0.20;;;14.70;71.30;;;;;;5064903;28;20471;-92
2022/05/19 06:10:11;;;;;;;0.30;0.20;;;14.80;69.40;;;;;;5066551;28;20887;-92
2022/05/19 06:12:39;;;;;;;0.30;0.20;;;14.70;71.50;;;;;;5072715;28;20477;-94
2022/05/19 06:15:08;;;;;;;0.50;0.33;;;15.10;70.30;;;;;;5083246;28;20489;-94
2022/05/19 06:17:35;;;;;;;0.40;0.20;;;15.30;70.90;;;;;;5097617;28;20494;-92
2022/05/19 06:20:02;;;;;;;0.30;0.20;;;15.50;70.00;;;;;;5076385;28;20455;-91
2022/05/19 06:22:29;;;;;;;0.40;0.20;;;15.70;66.70;;;;;;5086296;28;20477;-91
2022/05/19 06:24:56;;;;;;;0.40;0.20;;;15.80;67.50;;;;;;5076289;28;20548;-90
2022/05/19 06:27:23;;;;;;;0.40;0.20;;;15.90;67.10;;;;;;5069829;28;20600;-90
2022/05/19 06:29:52;;;;;;;0.40;0.20;;;15.90;70.60;;;;;;5070214;28;20465;-88
2022/05/19 06:32:19;;;;;;;0.40;0.20;;;15.70;70.30;;;;;;5077591;28;20466;-90
2022/05/19 06:34:46;;;;;;;0.40;0.20;;;16.00;69.80;;;;;;5075151;28;20541;-90
2022/05/19 06:37:13;;;;;;;0.40;0.20;;;16.30;73.30;;;;;;5068631;28;20462;-90
2022/05/19 06:39:40;;;;;;;0.50;0.30;;;16.30;67.00;;;;;;5084002;28;20472;-91
2022/05/19 06:42:14;;;;;;;0.40;0.20;;;16.40;66.90;;;;;;5072914;28;20474;-91
2022/05/19 06:44:43;;;;;;;0.40;0.20;;;16.50;67.30;;;;;;5072756;28;20857;-90
2022/05/19 06:47:14;;;;;;;0.40;0.20;;;16.80;66.60;;;;;;5070936;28;20496;-91
2022/05/19 06:49:42;;;;;;;0.40;0.20;;;17.00;67.70;;;;;;5076812;28;20470;-91
2022/05/19 06:52:13;;;;;;;0.40;0.20;;;17.00;67.20;;;;;;5070255;28;20468;-90
2022/05/19 06:54:41;;;;;;;0.40;0.20;;;16.90;65.40;;;;;;5067417;28;20495;-91
2022/05/19 06:57:09;;;;;;;0.40;0.20;;;17.20;69.00;;;;;;5067096;28;20490;-92
2022/05/19 06:59:36;;;;;;;0.40;0.20;;;17.20;67.10;;;;;;5066866;28;20973;-91
2022/05/19 07:02:03;;;;;;;0.40;0.20;;;17.10;67.70;;;;;;5070724;28;20933;-91
2022/05/19 07:04:31;;;;;;;0.40;0.20;;;17.00;69.20;;;;;;5066445;28;20542;-92
2022/05/19 07:06:58;;;;;;;0.40;0.20;;;17.50;70.30;;;;;;5070070;28;20836;-91
2022/05/19 07:09:25;;;;;;;0.40;0.20;;;17.30;66.50;;;;;;5080228;28;20535;-91
2022/05/19 07:11:53;;;;;;;0.40;0.20;;;17.40;69.30;;;;;;5083846;28;20459;-91
2022/05/19 07:14:21;;;;;;;0.40;0.20;;;17.50;67.30;;;;;;5072781;28;20495;-91
2022/05/19 07:16:49;;;;;;;0.40;0.20;;;17.70;68.80;;;;;;5071178;28;20478;-90
2022/05/19 07:22:02;;;;;;;0.40;0.20;;;17.80;70.10;;;;;;5082691;28;20472;-95
2022/05/19 07:24:29;;;;;;;0.40;0.20;;;18.10;70.20;;;;;;5086293;28;21077;-94
2022/05/19 07:26:57;;;;;;;0.40;0.20;;;17.90;67.70;;;;;;5085919;28;20470;-94
2022/05/19 07:29:24;;;;;;;0.40;0.20;;;17.80;69.10;;;;;;5088855;28;20845;-95
2022/05/19 07:31:53;;;;;;;0.40;0.20;;;17.80;66.80;;;;;;5075126;28;20907;-94
2022/05/19 07:34:23;;;;;;;0.40;0.20;;;17.90;67.20;;;;;;5084896;28;20482;-94
2022/05/19 07:36:50;;;;;;;0.40;0.20;;;18.00;65.20;;;;;;5082918;28;20894;-94
2022/05/19 07:39:19;;;;;;;0.40;0.20;;;18.30;68.00;;;;;;5066121;28;20455;-93
2022/05/19 07:41:46;;;;;;;0.40;0.20;;;18.40;69.30;;;;;;5070592;28;20464;-94
2022/05/19 07:44:14;;;;;;;0.40;0.30;;;18.60;66.30;;;;;;5072244;28;20984;-94
2022/05/19 07:46:42;;;;;;;0.40;0.20;;;18.70;69.40;;;;;;5073596;28;21059;-94
2022/05/19 07:49:09;;;;;;;0.40;0.20;;;18.90;70.30;;;;;;5069865;28;20451;-95
2022/05/19 07:51:40;;;;;;;0.77;0.77;;;18.90;68.90;;;;;;5084133;28;21216;-93
2022/05/19 07:54:10;;;;;;;0.40;0.20;;;18.80;66.20;;;;;;5074981;28;20469;-94
2022/05/19 07:56:39;;;;;;;0.40;0.20;;;18.60;65.60;;;;;;5079697;28;20695;-96
2022/05/19 07:59:08;;;;;;;0.40;0.30;;;18.70;68.70;;;;;;5068701;28;20978;-96
2022/05/19 08:01:36;;;;;;;0.40;0.30;;;19.10;70.90;;;;;;5076436;28;20464;-96
2022/05/19 08:04:03;;;;;;;0.40;0.20;;;19.30;69.30;;;;;;5074872;28;20466;-96
2022/05/19 08:06:31;;;;;;;0.40;0.30;;;19.10;67.60;;;;;;5077925;28;20443;-95
2022/05/19 08:08:59;;;;;;;0.40;0.20;;;19.40;66.80;;;;;;5076364;28;20463;-96
2022/05/19 08:11:27;;;;;;;0.40;0.20;;;19.30;65.30;;;;;;5070241;28;20465;-96
2022/05/19 08:16:40;;;;;;;0.40;0.20;;;19.50;67.90;;;;;;5096948;28;20469;-96
2022/05/19 08:19:07;;;;;;;0.40;0.20;;;19.60;70.20;;;;;;5094763;28;20510;-96
2022/05/19 08:21:35;;;;;;;0.40;0.20;;;19.90;71.20;;;;;;5076321;28;21138;-96
2022/05/19 08:24:02;;;;;;;0.97;0.30;;;20.20;74.60;;;;;;5074640;28;20537;-96
2022/05/19 08:26:29;;;;;;;0.40;0.20;;;19.80;66.30;;;;;;5072481;28;20913;-96
2022/05/19 08:28:57;;;;;;;0.40;0.20;;;20.10;66.90;;;;;;5070048;28;20454;-96
2022/05/19 08:31:26;;;;;;;0.40;0.20;;;20.10;69.10;;;;;;5075997;28;20503;-96
2022/05/19 08:33:54;;;;;;;0.40;0.20;;;20.20;65.40;;;;;;5070182;28;20471;-96
2022/05/19 08:36:21;;;;;;;0.40;0.20;;;20.20;66.70;;;;;;5067282;28;20498;-96
2022/05/19 08:38:48;;;;;;;0.40;0.20;;;20.40;69.30;;;;;;5078279;28;20936;-96
2022/05/19 08:41:25;;;;;;;0.40;0.20;;;20.50;64.30;;;;;;5070635;28;20957;-96
2022/05/19 08:43:57;;;;;;;0.40;0.20;;;20.50;69.10;;;;;;5072357;28;20549;-96
2022/05/19 08:46:30;;;;;;;0.40;0.20;;;20.00;68.80;;;;;;5070540;28;20457;-96
2022/05/19 08:49:02;;;;;;;0.40;0.20;;;20.30;67.40;;;;;;5071487;28;20468;-96
2022/05/19 08:51:37;;;;;;;0.40;0.20;;;20.50;73.90;;;;;;5071315;28;21021;-96
2022/05/19 08:54:07;;;;;;;0.50;0.40;;;20.70;67.20;;;;;;5072324;28;20471;-96
2022/05/19 08:56:39;;;;;;;0.40;0.20;;;20.80;64.30;;;;;;5077192;28;20492;-96
2022/05/19 08:59:18;;;;;;;0.40;0.20;;;21.10;71.60;;;;;;5068773;28;20550;-96
2022/05/19 09:01:54;;;;;;;0.47;0.33;;;21.10;67.50;;;;;;5068855;28;20466;-96
2022/05/19 09:04:32;;;;;;;0.40;0.20;;;21.20;69.90;;;;;;5071232;28;20556;-96
2022/05/19 09:10:17;;;;;;;0.40;0.20;;;21.60;65.30;;;;;;5070398;28;20631;-92
2022/05/19 09:12:46;;;;;;;0.80;0.30;;;21.40;67.20;;;;;;5073702;28;20504;-94
2022/05/19 09:15:13;;;;;;;0.40;0.20;;;21.20;64.60;;;;;;5072828;28;20884;-94
2022/05/19 09:17:44;;;;;;;0.40;0.20;;;21.00;63.80;;;;;;5070266;28;21009;-93
2022/05/19 09:20:13;;;;;;;0.40;0.20;;;21.40;67.10;;;;;;5065016;28;20459;-94
2022/05/19 09:22:40;;;;;;;0.40;0.20;;;21.60;67.10;;;;;;5064754;28;20862;-94
2022/05/19 09:25:09;;;;;;;0.40;0.20;;;21.70;67.30;;;;;;5062532;28;21109;-93
2022/05/19 09:27:39;;;;;;;0.40;0.20;;;21.80;69.70;;;;;;5069788;28;20529;-93
2022/05/19 09:30:13;;;;;;;0.40;0.20;;;21.90;68.60;;;;;;5064405;28;20520;-93
2022/05/19 09:32:53;;;;;;;0.40;0.30;;;21.90;69.00;;;;;;5065961;28;20467;-93
2022/05/19 09:35:24;;;;;;;0.40;0.30;;;22.30;68.50;;;;;;5065047;28;20941;-93
2022/05/19 09:38:04;;;;;;;0.40;0.30;;;22.40;63.80;;;;;;5073683;28;21111;-93
2022/05/19 09:40:37;;;;;;;0.40;0.20;;;22.70;66.00;;;;;;5064914;28;20460;-91
2022/05/19 09:43:10;;;;;;;0.40;0.20;;;22.70;64.00;;;;;;5060790;28;20521;-91
2022/05/19 09:45:40;;;;;;;0.40;0.20;;;22.60;68.50;;;;;;5063874;28;20467;-91
2022/05/19 09:48:09;;;;;;;0.40;0.20;;;22.40;62.90;;;;;;5068069;28;20568;-90
2022/05/19 09:50:43;;;;;;;0.40;0.20;;;22.30;62.70;;;;;;5068277;28;20468;-91
2022/05/19 09:53:15;;;;;;;0.40;0.20;;;22.50;62.90;;;;;;5068072;28;20452;-92
2022/05/19 09:55:43;;;;;;;0.60;0.50;;;22.40;68.30;;;;;;5074063;28;20812;-91
2022/05/19 09:58:14;;;;;;;0.40;0.20;;;22.50;62.60;;;;;;5069748;28;20875;-92
2022/05/19 10:00:45;;;;;;;0.40;0.30;;;22.30;64.70;;;;;;5067774;28;20470;-91
2022/05/19 10:03:22;;;;;;;0.40;0.20;;;22.40;65.60;;;;;;5065605;28;20550;-92
2022/05/19 10:05:51;;;;;;;0.40;0.20;;;22.70;66.10;;;;;;5069646;28;20465;-91
2022/05/19 10:08:21;;;;;;;0.40;0.20;;;23.00;66.40;;;;;;5070024;28;20479;-92
2022/05/19 10:10:56;;;;;;;0.40;0.30;;;23.20;64.80;;;;;;5068246;28;20466;-91
2022/05/19 10:13:28;;;;;;;0.40;0.20;;;23.10;64.60;;;;;;5066801;28;20467;-93
2022/05/19 10:16:03;;;;;;;0.40;0.30;;;23.10;66.40;;;;;;5069750;28;20900;-93
2022/05/19 10:19:02;;;;;;;0.40;0.20;;;23.20;64.90;;;;;;5095356;28;20442;-92
2022/05/19 10:21:48;;;;;;;0.40;0.30;;;23.20;64.90;;;;;;5085603;28;20456;-92
2022/05/19 10:24:55;;;;;;;0.40;0.20;;;23.40;66.10;;;;;;5069716;28;20562;-92
2022/05/19 10:33:14;;;;;;;0.40;0.20;;;23.50;63.90;;;;;;5067218;28;20520;-92
2022/05/19 10:35:57;;;;;;;0.50;0.30;;;23.50;66.00;;;;;;5071628;28;20491;-92
2022/05/19 10:38:38;;;;;;;0.40;0.30;;;23.70;64.60;;;;;;5068518;28;20472;-91
2022/05/19 10:41:19;;;;;;;0.40;0.20;;;23.90;67.90;;;;;;5067633;28;20463;-91
2022/05/19 10:44:25;;;;;;;0.40;0.20;;;23.70;63.80;;;;;;5070909;28;20576;-91
2022/05/19 10:46:58;;;;;;;0.40;0.27;;;24.10;66.40;;;;;;5063361;28;20805;-92
2022/05/19 10:49:49;;;;;;;0.40;0.30;;;24.10;65.00;;;;;;5063342;28;20511;-92
2022/05/19 10:52:28;;;;;;;0.40;0.23;;;24.50;62.40;;;;;;5064893;28;20474;-92
2022/05/19 10:55:10;;;;;;;0.50;0.30;;;24.80;61.70;;;;;;5070920;28;20473;-92
2022/05/19 10:58:02;;;;;;;0.40;0.23;;;24.90;65.70;;;;;;5076623;28;20516;-93
2022/05/19 11:00:42;;;;;;;0.40;0.20;;;24.60;62.10;;;;;;5072111;28;20520;-93
2022/05/19 11:03:40;;;;;;;0.40;0.20;;;24.70;61.70;;;;;;5076496;28;20502;-93
2022/05/19 11:06:22;;;;;;;0.40;0.20;;;24.40;63.70;;;;;;5068542;28;20463;-92
2022/05/19 11:09:02;;;;;;;0.40;0.30;;;24.90;62.00;;;;;;5069113;28;20803;-93
2022/05/19 11:11:42;;;;;;;0.40;0.20;;;25.10;61.70;;;;;;5067702;28;20471;-92
2022/05/19 11:14:19;;;;;;;0.40;0.20;;;25.10;62.00;;;;;;5067551;28;20540;-93
2022/05/19 11:16:53;;;;;;;0.40;0.20;;;25.40;60.30;;;;;;5067544;28;20533;-93
2022/05/19 11:19:28;;;;;;;0.40;0.30;;;25.20;60.00;;;;;;5064665;28;20459;-92
2022/05/19 11:22:02;;;;;;;1.27;1.23;;;25.40;65.40;;;;;;5067812;28;20466;-93
2022/05/19 11:24:35;;;;;;;0.40;0.20;;;25.30;60.00;;;;;;5068128;28;20989;-94
2022/05/19 11:27:10;;;;;;;0.40;0.30;;;25.30;61.20;;;;;;5066398;28;20464;-92
2022/05/19 11:29:44;;;;;;;0.40;0.30;;;25.20;61.20;;;;;;5067723;28;20997;-92
2022/05/19 11:32:16;;;;;;;0.40;0.20;;;25.60;62.50;;;;;;5067867;28;20800;-91
2022/05/19 11:34:49;;;;;;;0.40;0.23;;;25.80;59.60;;;;;;5069204;28;20502;-92
2022/05/19 11:37:26;;;;;;;0.63;0.40;;;25.90;60.40;;;;;;5067562;28;20496;-92
2022/05/19 11:40:11;;;;;;;0.40;0.20;;;26.00;61.30;;;;;;5066356;28;20492;-93
2022/05/19 11:42:45;;;;;;;0.50;0.30;;;25.70;59.40;;;;;;5070012;28;20521;-93
2022/05/19 11:45:19;;;;;;;0.40;0.20;;;25.50;59.30;;;;;;5068552;28;20462;-93
2022/05/19 11:56:26;;;;;;;0.40;0.20;;;25.60;62.60;;;;;;5072886;28;20470;-93
2022/05/19 11:58:55;;;;;;;0.40;0.20;;;25.80;60.80;;;;;;5071043;28;20475;-94
2022/05/19 12:01:27;;;;;;;0.40;0.20;;;25.60;64.60;;;;;;5082376;28;20881;-95
2022/05/19 12:04:06;;;;;;;0.40;0.30;;;25.70;62.50;;;;;;5068614;28;20580;-94
2022/05/19 12:06:36;;;;;;;0.40;0.20;;;25.50;61.70;;;;;;5079528;28;20450;-94
2022/05/19 12:09:08;;;;;;;0.40;0.30;;;25.60;59.50;;;;;;5074739;28;20930;-94
2022/05/19 12:11:54;;;;;;;0.40;0.30;;;25.80;62.30;;;;;;5072306;28;20463;-93
2022/05/19 12:14:40;;;;;;;0.40;0.30;;;25.80;60.10;;;;;;5070394;28;21062;-93
2022/05/19 12:17:33;;;;;;;0.40;0.20;;;25.90;59.40;;;;;;5071383;28;20512;-94
2022/05/19 12:20:03;;;;;;;0.60;0.30;;;26.00;60.00;;;;;;5093789;28;20462;-93
2022/05/19 12:22:37;;;;;;;0.40;0.30;;;25.80;56.70;;;;;;5084769;28;20468;-94
2022/05/19 12:25:17;;;;;;;0.40;0.20;;;26.20;60.40;;;;;;5075485;28;20498;-94
2022/05/19 12:28:02;;;;;;;0.40;0.30;;;26.50;61.10;;;;;;5071217;28;20492;-93
2022/05/19 12:33:25;;;;;;;0.40;0.20;;;26.60;59.30;;;;;;5070523;28;20450;-93
2022/05/19 12:35:56;;;;;;;0.40;0.20;;;26.70;57.80;;;;;;5065882;28;20487;-94
2022/05/19 12:38:31;;;;;;;0.53;0.53;;;26.60;57.90;;;;;;5065752;28;20474;-94
2022/05/19 12:41:00;;;;;;;0.40;0.30;;;26.60;58.50;;;;;;5069166;28;20466;-94
2022/05/19 12:43:44;;;;;;;0.40;0.20;;;26.30;57.00;;;;;;5061286;28;20488;-94
2022/05/19 12:46:13;;;;;;;0.40;0.20;;;26.30;57.70;;;;;;5066812;28;20958;-94
2022/05/19 12:49:16;;;;;;;0.40;0.20;;;26.50;60.00;;;;;;5068334;28;20865;-94
2022/05/19 12:51:51;;;;;;;0.60;0.30;;;26.50;55.70;;;;;;5065921;28;20463;-95
2022/05/19 12:54:19;;;;;;;0.40;0.20;;;26.70;60.60;;;;;;5066410;28;20470;-94
2022/05/19 12:56:59;;;;;;;0.40;0.30;;;26.80;58.10;;;;;;5068930;28;20491;-95
2022/05/19 12:59:45;;;;;;;0.40;0.20;;;27.10;62.20;;;;;;5062873;28;20524;-94
2022/05/19 13:02:24;;;;;;;0.40;0.20;;;26.80;57.20;;;;;;5062995;28;20495;-94
2022/05/19 13:04:57;;;;;;;0.40;0.27;;;26.90;58.20;;;;;;5069394;28;21051;-94
2022/05/19 13:07:29;;;;;;;0.50;0.33;;;27.00;58.00;;;;;;5064966;28;20960;-94
2022/05/19 13:10:03;;;;;;;0.40;0.20;;;26.90;56.30;;;;;;5070787;28;20551;-94
2022/05/19 13:12:43;;;;;;;1.23;0.30;;;27.10;59.40;;;;;;5070197;28;20544;-94
2022/05/19 13:15:16;;;;;;;0.40;0.30;;;26.90;55.60;;;;;;5070924;28;20455;-94
2022/05/19 13:17:45;;;;;;;0.40;0.27;;;26.90;56.10;;;;;;5071872;28;20498;-95
2022/05/19 13:20:16;;;;;;;0.40;0.20;;;26.80;57.40;;;;;;5064578;28;20471;-95
2022/05/19 13:22:50;;;;;;;0.40;0.30;;;26.90;57.50;;;;;;5067954;28;20866;-95
2022/05/19 13:25:18;;;;;;;0.40;0.20;;;27.20;59.00;;;;;;5066449;28;20463;-95
2022/05/19 13:30:34;;;;;;;0.40;0.27;;;27.40;57.30;;;;;;5071086;28;21130;-95
2022/05/19 13:33:07;;;;;;;0.50;0.30;;;27.00;55.20;;;;;;5078040;28;20809;-94
2022/05/19 13:35:36;;;;;;;0.40;0.30;;;26.90;58.10;;;;;;5079609;28;20470;-95
2022/05/19 13:38:18;;;;;;;0.40;0.30;;;27.10;58.30;;;;;;5074800;28;21154;-94